Boone County Airport
KHRO : now visible

Airfield :











YOU CAN JOIN US ON...

 
LOGIN :

Register | Disclaimer

   EN    FR    IT 

 









Legend :    VFR   Marginal VFR   IFR   Intensive IFR   Very Intensive IFR
Visi :
Ceiling :
>= 8 km
>= 3000ft
5 to 8 km
1000 to 3000 ft
1500m to 5 km
500 to 1000 ft
800 to 1500m
200 to 500 ft
< 800m
< 200 ft
Symbols :   Thunderstorms  Fog  Heavy snow  Heavy precipitations  Wind > 20 kt






- Airport Elevation : 1365 ft
- IATA code : HRO


KHRO - Boone County

CURRENT METAR :
  • 162153Z AUTO 10010KT 10SM CLR 27/20 A2997 RMK AO2 SLP133 T02720200

EXPIRED METARs :
  • 162104Z AUTO 14010KT 10SM SCT021 SCT035 25/19 A2999 RMK AO2 T02500194
  • 161953Z AUTO 11013KT 10SM BKN017 24/19 A3002 RMK AO2 SLP153 T02390189

TAF KHRO
Valid from the 16 at 18:00 until the 17 at 18:00 UTC


161720Z 1618/1718 VRB06KT P6SM BKN010 OVC020
TEMPO 1621/1624 4SM -TSRA BR BKN010CB
FM170000 11008KT P6SM -SHRA BKN010
TEMPO 1700/1704 4SM TS BR BKN005 OVC010CB
FM170400 10008KT 6SM -SHRA BR VCTS BKN005CB OVC010
KZME FIR / North America



MET'MAP, your aeronautical weather chart ! - Copyright ORBIFLY December 2007 - Disclaimer

ORBIFLY MET'MAP TEAM :

Programming & Development : Alexandra Zaïnal
Original concept : Baudouin d'Aumeries
Technical & hardware support : Manuel Goepfert
Assistance : Marc-Olivier Méhu




SOURCES & CREDITS :

   NOAA       Earth
Advisory